Time;durP1;ratioP1;P1;durP2;ratioP2;P2;SDS_P1;SDS_P2;PMS_P1;PMS_P2;Temp;Humidity;BMP_temperature;BMP_pressure;BME280_temperature;BME280_humidity;BME280_pressure;Samples;Min_cycle;Max_cycle;Signal;HPM_P1;HPM_P2
2021/04/04 00:01:52;;;;;;;15.38;6.92;;;;;;;-2.15;73.47;100164.97;1765987;80;21221;-71
2021/04/04 00:04:21;;;;;;;12.40;6.90;;;;;;;-2.17;73.53;100164.09;1765437;79;21592;-70
2021/04/04 00:06:49;;;;;;;13.78;5.47;;;;;;;-2.19;73.63;100165.77;1774969;80;22262;-70
2021/04/04 00:09:21;;;;;;;9.20;4.65;;;;;;;-2.20;73.71;100157.66;1771286;79;21167;-70
2021/04/04 00:11:50;;;;;;;9.80;4.37;;;;;;;-2.20;73.79;100153.83;1769496;80;21578;-70
2021/04/04 00:14:20;;;;;;;10.05;4.67;;;;;;;-2.21;73.80;100153.80;1768645;80;22132;-70
2021/04/04 00:16:47;;;;;;;5.60;3.70;;;;;;;-2.25;73.77;100147.80;1768679;80;21164;-70
2021/04/04 00:19:14;;;;;;;7.37;3.22;;;;;;;-2.27;73.79;100147.80;1768545;80;22319;-70
2021/04/04 00:21:41;;;;;;;8.40;3.02;;;;;;;-2.29;73.83;100146.05;1770460;80;21080;-70
2021/04/04 00:24:09;;;;;;;6.47;3.12;;;;;;;-2.31;73.90;100147.73;1768833;80;21277;-70
2021/04/04 00:26:36;;;;;;;5.25;2.80;;;;;;;-2.32;74.01;100150.71;1765672;79;21518;-70
2021/04/04 00:29:08;;;;;;;9.48;3.33;;;;;;;-2.31;74.07;100149.01;1764887;80;21186;-70
2021/04/04 00:31:37;;;;;;;4.40;2.40;;;;;;;-2.32;74.11;100151.14;1765912;79;22535;-70
2021/04/04 00:34:06;;;;;;;6.20;2.35;;;;;;;-2.33;74.04;100139.17;1759771;80;21204;-70
2021/04/04 00:36:35;;;;;;;4.67;2.20;;;;;;;-2.32;74.19;100146.02;1763735;80;21168;-70
2021/04/04 00:39:10;;;;;;;7.60;2.98;;;;;;;-2.33;74.25;100137.47;1774750;79;21262;-70
2021/04/04 00:41:40;;;;;;;6.45;2.58;;;;;;;-2.33;74.19;100137.89;1767705;80;21230;-70
2021/04/04 00:44:11;;;;;;;7.62;2.85;;;;;;;-2.34;74.37;100141.30;1770941;80;21276;-70
2021/04/04 00:46:41;;;;;;;5.20;2.47;;;;;;;-2.32;74.32;100137.07;1772018;80;21654;-70
2021/04/04 00:49:08;;;;;;;5.78;3.35;;;;;;;-2.34;74.35;100133.62;1775383;80;20998;-69
2021/04/04 00:51:36;;;;;;;;;;;;;;;-2.36;74.34;100131.47;1774367;79;21623;-70
2021/04/04 00:54:05;;;;;;;9.40;3.42;;;;;;;-2.38;74.43;100128.91;1774982;79;20234;-70
2021/04/04 00:56:36;;;;;;;9.28;3.50;;;;;;;-2.40;74.41;100136.13;1767802;80;21767;-70
2021/04/04 00:59:04;;;;;;;7.40;3.77;;;;;;;-2.43;74.45;100134.81;1764039;79;21228;-70
2021/04/04 01:01:33;;;;;;;;;;;;;;;-2.43;74.49;100134.81;1763559;80;21056;-70
2021/04/04 01:04:01;;;;;;;6.08;3.33;;;;;;;-2.45;74.57;100135.20;1774318;79;20249;-70
2021/04/04 01:06:28;;;;;;;8.45;3.40;;;;;;;-2.48;74.67;100131.76;1766178;80;21168;-70
2021/04/04 01:08:56;;;;;;;5.67;3.22;;;;;;;-2.49;74.60;100131.33;1767811;80;21211;-70
2021/04/04 01:11:43;;;;;;;5.10;3.12;;;;;;;-2.49;74.69;100128.77;1774906;79;21206;-70
2021/04/04 01:14:25;;;;;;;7.72;2.52;;;;;;;-2.48;74.89;100124.09;1768737;80;21196;-70
2021/04/04 01:16:56;;;;;;;7.05;3.77;;;;;;;-2.45;74.89;100127.53;1772477;79;21241;-70
2021/04/04 01:19:41;;;;;;;11.97;3.60;;;;;;;-2.45;74.84;100131.37;1765121;79;21219;-70
2021/04/04 01:22:28;;;;;;;8.15;3.92;;;;;;;-2.47;74.87;100115.99;1751545;79;21639;-70
2021/04/04 01:25:08;;;;;;;7.37;3.42;;;;;;;-2.47;74.97;100119.41;1669566;84;21203;-69
2021/04/04 01:28:05;;;;;;;8.38;3.77;;;;;;;-2.49;75.04;100114.71;1667950;84;21210;-69
2021/04/04 01:30:35;;;;;;;4.92;3.22;;;;;;;-2.53;74.99;100115.50;1670242;84;26853;-69
2021/04/04 01:33:04;;;;;;;8.00;4.03;;;;;;;-2.59;74.80;100111.59;1659076;84;21236;-69
2021/04/04 01:35:35;;;;;;;13.28;4.15;;;;;;;-2.62;75.04;100114.12;1669567;84;22188;-69
2021/04/04 01:38:13;;;;;;;5.22;3.67;;;;;;;-2.64;75.15;100114.52;1663918;84;21621;-69
2021/04/04 01:40:44;;;;;;;6.85;3.90;;;;;;;-2.63;75.14;100117.53;1658395;84;21237;-69
2021/04/04 01:43:14;;;;;;;11.43;4.20;;;;;;;-2.62;75.31;100105.17;1662428;84;21212;-69
2021/04/04 01:45:43;;;;;;;9.65;4.80;;;;;;;-2.61;75.22;100105.59;1660025;84;21285;-69
2021/04/04 01:48:12;;;;;;;7.40;3.95;;;;;;;-2.59;75.31;100107.77;1660930;84;22116;-69
2021/04/04 01:50:42;;;;;;;7.65;4.45;;;;;;;-2.58;75.38;100105.63;1658492;84;21651;-69
2021/04/04 01:53:13;;;;;;;7.62;4.15;;;;;;;-2.56;75.49;100098.84;1662134;84;21180;-69
2021/04/04 01:55:41;;;;;;;7.72;4.62;;;;;;;-2.57;75.42;100102.25;1662547;84;21227;-69
2021/04/04 01:58:10;;;;;;;5.37;3.70;;;;;;;-2.55;75.54;100092.03;1665792;84;21258;-69
2021/04/04 02:00:39;;;;;;;7.17;3.50;;;;;;;-2.53;75.61;100080.13;1662969;81;21262;-69
2021/04/04 02:03:08;;;;;;;7.53;4.33;;;;;;;-2.52;75.55;100083.11;1770572;80;21158;-69
2021/04/04 02:05:36;;;;;;;6.53;3.92;;;;;;;-2.53;75.57;100087.38;1764388;80;21172;-69
2021/04/04 02:08:07;;;;;;;5.92;3.60;;;;;;;-2.53;75.56;100090.36;1770583;80;21251;-69
2021/04/04 02:10:37;;;;;;;6.15;3.85;;;;;;;-2.53;75.62;100088.66;1770212;80;21183;-69
2021/04/04 02:13:05;;;;;;;4.58;3.83;;;;;;;-2.53;75.63;100083.53;1767142;80;21068;-70
2021/04/04 02:15:33;;;;;;;6.33;3.98;;;;;;;-2.54;75.70;100089.50;1770185;80;21053;-70
2021/04/04 02:18:02;;;;;;;5.65;3.15;;;;;;;-2.55;75.76;100073.73;1765242;79;21176;-69
2021/04/04 02:20:32;;;;;;;6.62;3.12;;;;;;;-2.54;75.65;100074.16;1760980;80;21668;-69
2021/04/04 02:23:03;;;;;;;6.78;4.00;;;;;;;-2.55;75.67;100069.91;1763664;80;21169;-68
2021/04/04 02:25:31;;;;;;;7.60;3.30;;;;;;;-2.56;75.58;100066.89;1766485;80;21209;-70
2021/04/04 02:27:58;;;;;;;5.12;3.20;;;;;;;-2.60;75.52;100068.98;1761835;80;21650;-69
2021/04/04 02:30:27;;;;;;;6.30;3.50;;;;;;;-2.62;75.66;100068.10;1764652;80;21216;-69
2021/04/04 02:33:01;;;;;;;5.65;3.40;;;;;;;-2.63;75.63;100068.95;1765421;79;21714;-69
2021/04/04 02:35:36;;;;;;;7.30;4.05;;;;;;;-2.64;75.68;100064.66;1765569;80;21629;-70
2021/04/04 02:38:15;;;;;;;5.83;3.87;;;;;;;-2.67;75.65;100082.52;1740452;80;21314;-70
2021/04/04 02:40:46;;;;;;;7.22;3.85;;;;;;;-2.69;75.71;100071.41;1766633;79;21207;-70
2021/04/04 02:43:25;;;;;;;6.87;3.95;;;;;;;-2.72;75.75;100071.37;1763378;80;21053;-70
2021/04/04 02:45:55;;;;;;;6.22;3.60;;;;;;;-2.72;75.76;100073.94;1769974;80;21135;-69
2021/04/04 02:48:33;;;;;;;8.03;3.42;;;;;;;-2.76;75.74;100069.64;1731033;81;21132;-70
2021/04/04 02:51:04;;;;;;;7.97;4.20;;;;;;;-2.80;75.78;100067.87;1707368;82;21667;-70
2021/04/04 02:53:36;;;;;;;6.78;3.70;;;;;;;-2.85;75.77;100064.42;1713486;82;21148;-70
2021/04/04 02:56:05;;;;;;;5.42;3.98;;;;;;;-2.85;75.79;100061.88;1721847;82;21223;-70
2021/04/04 02:58:34;;;;;;;7.92;4.17;;;;;;;-2.88;75.87;100057.58;1720065;82;21141;-70
2021/04/04 03:01:04;;;;;;;7.62;3.87;;;;;;;-2.90;75.94;100060.95;1708478;82;21170;-70
2021/04/04 03:03:32;;;;;;;4.42;3.12;;;;;;;-2.92;75.89;100056.66;1714260;81;21279;-71
2021/04/04 03:06:03;;;;;;;7.65;3.83;;;;;;;-2.94;75.89;100049.41;1721688;82;21641;-70
2021/04/04 03:08:31;;;;;;;4.20;2.85;;;;;;;-2.92;76.12;100051.55;1715185;82;21059;-70
2021/04/04 03:10:59;;;;;;;5.37;3.87;;;;;;;-2.89;76.16;100060.09;1718782;81;21184;-69
2021/04/04 03:13:28;;;;;;;6.40;2.85;;;;;;;-2.88;76.25;100047.36;1716370;82;21313;-70
2021/04/04 03:15:56;;;;;;;6.03;2.90;;;;;;;-2.83;76.37;100052.50;1722667;82;21228;-69
2021/04/04 03:18:23;;;;;;;;;;;;;;;-2.77;76.37;100047.49;1720438;82;21673;-70
2021/04/04 03:20:51;;;;;;;;;;;;;;;-2.75;76.55;100053.45;1721814;82;20223;-70
2021/04/04 03:23:19;;;;;;;6.80;2.75;;;;;;;-2.73;76.48;100041.56;1720281;82;20823;-70
2021/04/04 03:25:47;;;;;;;4.17;2.80;;;;;;;-2.71;76.47;100047.55;1718908;82;21225;-70
2021/04/04 03:28:17;;;;;;;5.70;2.80;;;;;;;-2.70;76.44;100041.59;1718806;81;22165;-70
2021/04/04 03:30:46;;;;;;;3.90;2.40;;;;;;;-2.68;76.49;100039.92;1723239;82;21203;-69
2021/04/04 03:33:20;;;;;;;3.83;2.42;;;;;;;-2.64;76.54;100035.27;1728312;82;21233;-70
2021/04/04 03:35:50;;;;;;;6.17;3.00;;;;;;;-2.62;76.56;100045.09;1709199;82;21198;-69
2021/04/04 03:38:21;;;;;;;4.28;2.98;;;;;;;-2.60;76.49;100047.69;1711740;82;21223;-70
2021/04/04 03:40:49;;;;;;;4.83;2.65;;;;;;;-2.59;76.55;100036.18;1713270;81;22347;-70
2021/04/04 03:43:30;;;;;;;5.92;2.77;;;;;;;-2.56;76.53;100040.05;1718863;82;21179;-70
2021/04/04 03:46:01;;;;;;;5.30;3.00;;;;;;;-2.54;76.54;100030.70;1720722;82;21611;-70
2021/04/04 03:48:31;;;;;;;3.65;2.50;;;;;;;-2.51;76.54;100029.88;1717607;81;21236;-69
2021/04/04 03:51:01;;;;;;;3.90;2.60;;;;;;;-2.51;76.52;100028.17;1724669;82;21145;-70
2021/04/04 03:53:30;;;;;;;9.05;2.90;;;;;;;-2.52;76.52;100036.70;1732296;81;21205;-70
2021/04/04 03:56:02;;;;;;;6.53;3.05;;;;;;;-2.49;76.60;100034.17;1694190;82;21231;-70
2021/04/04 03:58:36;;;;;;;4.03;2.35;;;;;;;-2.49;76.59;100034.17;1702351;83;21225;-70
2021/04/04 04:01:06;;;;;;;4.33;2.45;;;;;;;-2.48;76.54;100025.64;1709007;82;21262;-70
2021/04/04 04:03:35;;;;;;;4.87;2.60;;;;;;;-2.50;76.56;100019.65;1722919;82;21244;-70
2021/04/04 04:06:04;;;;;;;5.12;2.67;;;;;;;-2.49;76.58;100014.99;1680802;82;22073;-70
2021/04/04 04:08:33;;;;;;;3.75;2.35;;;;;;;-2.45;76.62;100012.03;1729765;81;21151;-70
2021/04/04 04:11:00;;;;;;;3.62;2.00;;;;;;;-2.43;76.67;100014.63;1709218;82;21202;-70
2021/04/04 04:13:29;;;;;;;4.58;2.33;;;;;;;-2.41;76.63;100011.20;1720352;82;21188;-69
2021/04/04 04:15:57;;;;;;;7.35;2.83;;;;;;;-2.38;76.67;100012.94;1718890;82;21207;-71
2021/04/04 04:18:25;;;;;;;4.00;2.05;;;;;;;-2.33;76.70;100004.90;1714377;81;21273;-70
2021/04/04 04:20:52;;;;;;;3.85;2.12;;;;;;;-2.30;76.76;100002.37;1732240;81;21199;-70
2021/04/04 04:23:21;;;;;;;5.35;2.00;;;;;;;-2.25;76.77;99989.20;1720180;82;21622;-70
2021/04/04 04:25:49;;;;;;;3.05;1.77;;;;;;;-2.09;77.05;99994.89;1719397;82;21265;-70
2021/04/04 04:28:18;;;;;;;8.20;2.42;;;;;;;-1.63;77.41;99987.53;1717442;82;21181;-70
2021/04/04 04:30:45;;;;;;;3.55;2.45;;;;;;;-1.06;77.31;99993.41;1717332;82;21275;-70
2021/04/04 04:33:16;;;;;;;7.20;2.47;;;;;;;-0.52;77.20;99997.84;1721143;82;21173;-71
2021/04/04 04:35:45;;;;;;;4.33;2.10;;;;;;;0.17;77.23;99992.77;1716343;82;21187;-70
2021/04/04 04:38:13;;;;;;;8.75;2.20;;;;;;;0.83;76.73;99990.04;1717007;82;21082;-70
2021/04/04 04:40:44;;;;;;;7.92;2.22;;;;;;;1.43;76.41;99997.50;1692450;84;21193;-70
2021/04/04 04:43:14;;;;;;;2.20;1.70;;;;;;;2.15;76.44;99985.81;1726034;81;21208;-70
2021/04/04 04:45:42;;;;;;;4.72;2.08;;;;;;;2.76;75.58;99983.91;1712737;82;21657;-71
2021/04/04 04:48:09;;;;;;;;;;;;;;;3.30;75.51;99982.80;1694055;84;21280;-71
2021/04/04 04:50:37;;;;;;;3.55;1.90;;;;;;;3.95;74.95;99981.86;1688857;83;20259;-71
2021/04/04 04:53:04;;;;;;;;;;;;;;;4.56;75.10;99975.63;1713643;82;21200;-71
2021/04/04 04:55:33;;;;;;;3.15;2.10;;;;;;;5.30;74.55;99974.17;1711263;82;21346;-72
2021/04/04 04:58:01;;;;;;;4.40;2.15;;;;;;;5.64;73.45;99966.48;1707213;82;21255;-72
2021/04/04 05:00:28;;;;;;;3.52;2.02;;;;;;;6.15;73.62;99965.30;1707727;82;22354;-73
2021/04/04 05:02:55;;;;;;;3.92;2.00;;;;;;;6.68;73.46;99957.84;1694972;83;21195;-72
2021/04/04 05:05:23;;;;;;;3.35;2.17;;;;;;;7.15;72.93;99962.14;1718658;83;21066;-72
2021/04/04 05:07:51;;;;;;;;;;;;;;;7.49;72.36;99960.67;1697586;83;21612;-71
2021/04/04 05:10:22;;;;;;;4.33;2.52;;;;;;;7.41;71.09;99970.44;1704606;83;20303;-72
2021/04/04 05:13:02;;;;;;;3.47;2.60;;;;;;;7.07;71.60;99962.80;1707309;83;21226;-71
2021/04/04 05:15:30;;;;;;;5.80;2.60;;;;;;;6.45;71.43;99959.31;1711257;82;21180;-71
2021/04/04 05:17:57;;;;;;;3.77;2.40;;;;;;;5.58;71.90;99961.01;1688575;84;21219;-72
2021/04/04 05:20:24;;;;;;;4.10;2.60;;;;;;;4.98;72.36;99957.56;1718190;82;22201;-70
2021/04/04 05:22:53;;;;;;;3.55;2.02;;;;;;;4.30;72.71;99962.34;1688179;84;21211;-70
2021/04/04 05:25:21;;;;;;;8.50;2.25;;;;;;;3.83;73.39;99966.56;1695975;83;21121;-71
2021/04/04 05:27:49;;;;;;;4.90;2.05;;;;;;;3.41;73.73;99964.59;1709608;82;21234;-71
2021/04/04 05:30:18;;;;;;;5.30;2.30;;;;;;;3.29;74.71;99959.61;1709275;82;21585;-70
2021/04/04 05:32:48;;;;;;;3.55;2.00;;;;;;;4.24;75.65;99958.97;1709707;82;21203;-70
2021/04/04 05:35:19;;;;;;;3.15;2.10;;;;;;;5.44;75.31;99952.70;1712105;82;21177;-70
2021/04/04 05:37:47;;;;;;;3.95;1.85;;;;;;;6.43;74.84;99957.20;1712126;82;21606;-70
2021/04/04 05:40:30;;;;;;;5.45;2.10;;;;;;;7.37;74.32;99947.61;1717924;82;21234;-70
2021/04/04 05:43:05;;;;;;;3.77;1.92;;;;;;;8.10;73.61;99946.16;1721804;82;21184;-71
2021/04/04 05:45:51;;;;;;;6.67;1.98;;;;;;;8.72;73.01;99944.45;1682333;83;26831;-71
2021/04/04 05:48:41;;;;;;;4.92;2.00;;;;;;;9.34;72.17;99943.47;1711128;82;21631;-70
2021/04/04 05:51:32;;;;;;;3.65;2.00;;;;;;;9.34;72.17;99943.47;1725161;82;21223;-71
2021/04/04 05:54:40;;;;;;;2.47;1.57;;;;;;;9.64;72.33;99942.27;1721896;82;21199;-70
2021/04/04 05:57:26;;;;;;;5.70;2.65;;;;;;;9.97;71.24;99945.73;1732160;81;21225;-71
2021/04/04 06:00:04;;;;;;;3.83;2.20;;;;;;;10.27;71.79;99947.98;1718759;82;21530;-71
2021/04/04 06:06:43;;;;;;;4.42;1.92;;;;;;;10.77;71.49;99935.80;1792779;78;22826;-69
2021/04/04 06:09:40;;;;;;;4.08;2.02;;;;;;;10.93;71.34;99944.65;1753183;80;21084;-71
2021/04/04 06:12:37;;;;;;;;;;;;;;;10.94;71.25;99946.34;1740884;80;21213;-71
2021/04/04 06:15:21;;;;;;;2.35;2.12;;;;;;;10.93;70.20;99944.65;1753977;80;20335;-70
2021/04/04 06:18:12;;;;;;;2.98;1.98;;;;;;;10.87;71.02;99943.62;1748591;80;21621;-70
2021/04/04 06:21:08;;;;;;;3.27;2.22;;;;;;;11.02;70.39;99941.23;1749127;80;21050;-70
2021/04/04 06:23:49;;;;;;;3.60;2.22;;;;;;;10.93;70.87;99942.04;1745270;80;21625;-71
2021/04/04 06:26:21;;;;;;;5.12;2.22;;;;;;;10.97;70.98;99930.52;1741855;80;21295;-71
2021/04/04 06:29:15;;;;;;;4.17;2.45;;;;;;;11.04;70.42;99940.72;1727832;81;21224;-71
2021/04/04 06:32:12;;;;;;;4.25;2.08;;;;;;;11.01;70.32;99939.52;1746632;80;21121;-71
2021/04/04 06:34:52;;;;;;;7.30;2.12;;;;;;;10.93;69.87;99932.05;1751596;80;21696;-72
2021/04/04 06:37:45;;;;;;;3.50;2.22;;;;;;;10.90;69.54;99925.20;1744689;80;21648;-73
2021/04/04 06:40:26;;;;;;;4.10;2.30;;;;;;;10.92;69.88;99933.83;1750010;80;21201;-70
2021/04/04 06:43:22;;;;;;;4.70;2.77;;;;;;;10.87;69.54;99930.56;1750460;80;21298;-70
2021/04/04 06:46:29;;;;;;;10.32;5.25;;;;;;;10.82;69.31;99924.70;1769659;80;21189;-71
2021/04/04 06:49:51;;;;;;;9.90;6.10;;;;;;;10.77;69.26;99922.74;1764360;80;21179;-71
2021/04/04 06:52:42;;;;;;;8.78;5.95;;;;;;;10.72;69.40;99923.40;1768535;80;21703;-69
2021/04/04 06:55:51;;;;;;;12.35;8.20;;;;;;;10.61;68.80;99915.20;1767298;80;21586;-69
2021/04/04 06:58:49;;;;;;;7.53;3.50;;;;;;;10.58;69.15;99917.95;1710468;82;21172;-71
2021/04/04 07:01:48;;;;;;;5.00;2.50;;;;;;;10.44;68.58;99922.47;1678448;83;21666;-70
2021/04/04 07:04:45;;;;;;;4.80;2.60;;;;;;;10.42;68.52;99919.94;1703123;82;21227;-72
2021/04/04 07:07:52;;;;;;;4.90;2.10;;;;;;;10.27;68.27;99926.64;1713742;82;21914;-70
2021/04/04 07:10:43;;;;;;;4.72;2.10;;;;;;;10.16;68.16;99924.08;1709652;82;21290;-69
2021/04/04 07:13:56;;;;;;;4.80;2.65;;;;;;;10.00;67.69;99918.67;1703367;83;21255;-69
2021/04/04 07:17:00;;;;;;;4.85;1.90;;;;;;;9.58;67.95;99921.66;1711881;82;22109;-69
2021/04/04 07:19:51;;;;;;;7.80;2.62;;;;;;;8.87;67.17;99926.56;1709310;82;21399;-68
2021/04/04 07:23:05;;;;;;;4.22;2.65;;;;;;;8.10;67.98;99925.81;1829936;77;22265;-68
2021/04/04 07:25:46;;;;;;;5.90;2.72;;;;;;;7.74;68.12;99923.52;1798927;78;21050;-69
2021/04/04 07:28:59;;;;;;;8.75;3.52;;;;;;;7.27;68.56;99921.50;1800768;78;21147;-69
2021/04/04 07:31:41;;;;;;;6.12;2.55;;;;;;;7.07;68.59;99922.11;1794169;78;21044;-68
2021/04/04 07:34:30;;;;;;;4.90;2.20;;;;;;;6.76;68.60;99922.15;1800370;78;21241;-68
2021/04/04 07:37:28;;;;;;;6.08;2.37;;;;;;;6.70;68.85;99927.52;1802498;78;20981;-69
2021/04/04 07:40:15;;;;;;;3.95;1.80;;;;;;;6.63;68.62;99920.79;1796190;78;21155;-68
2021/04/04 07:42:54;;;;;;;5.60;2.60;;;;;;;6.44;68.52;99916.13;1793629;78;22374;-68
2021/04/04 07:45:41;;;;;;;7.10;3.00;;;;;;;6.41;68.74;99911.02;1796919;78;21643;-68
2021/04/04 07:48:42;;;;;;;5.15;2.05;;;;;;;6.46;68.63;99919.50;1795032;78;26191;-68
2021/04/04 07:51:29;;;;;;;6.20;2.33;;;;;;;6.43;68.53;99911.81;1760392;79;21188;-67
2021/04/04 07:54:19;;;;;;;5.22;2.55;;;;;;;6.50;68.58;99913.36;1759475;79;21535;-68
2021/04/04 07:57:11;;;;;;;3.95;2.40;;;;;;;6.56;68.39;99917.98;1747441;80;21646;-68
2021/04/04 07:59:48;;;;;;;7.05;2.40;;;;;;;6.62;68.45;99922.53;1752665;80;21239;-68
2021/04/04 08:02:26;;;;;;;8.48;3.15;;;;;;;6.76;68.38;99913.06;1760402;79;21197;-69
2021/04/04 08:05:08;;;;;;;6.33;1.90;;;;;;;6.82;68.30;99909.45;1749927;80;21158;-69
2021/04/04 08:08:04;;;;;;;6.10;1.98;;;;;;;6.86;67.85;99913.22;1727478;81;21175;-68
2021/04/04 08:10:46;;;;;;;4.33;1.65;;;;;;;6.82;67.91;99907.70;1760611;79;21415;-69
2021/04/04 08:13:21;;;;;;;5.33;2.10;;;;;;;6.82;67.52;99903.80;1759125;79;21165;-69
2021/04/04 08:16:27;;;;;;;3.90;1.67;;;;;;;6.82;67.43;99905.10;1764868;79;21163;-69
2021/04/04 08:18:55;;;;;;;5.45;1.70;;;;;;;6.68;66.17;99909.39;1731827;81;21216;-68
2021/04/04 08:21:35;;;;;;;;;;;;;;;6.55;67.24;99891.61;1769897;79;21154;-71
2021/04/04 08:24:13;;;;;;;4.95;2.30;;;;;;;6.59;67.25;99895.84;1716822;81;21110;-71
2021/04/04 08:27:08;;;;;;;4.05;2.00;;;;;;;6.76;67.41;99891.02;1741769;80;21200;-72
2021/04/04 08:29:45;;;;;;;6.30;2.08;;;;;;;6.92;67.38;99887.08;1768578;79;21134;-72
2021/04/04 08:32:18;;;;;;;3.25;1.67;;;;;;;7.09;67.34;99876.64;1759746;79;21165;-72
2021/04/04 08:34:58;;;;;;;7.25;1.87;;;;;;;7.14;66.78;99878.62;1747383;80;21168;-72
2021/04/04 08:37:38;;;;;;;6.47;1.87;;;;;;;7.21;66.50;99876.25;1750941;79;21626;-71
2021/04/04 08:40:12;;;;;;;4.60;1.77;;;;;;;7.23;66.75;99880.95;1751566;81;21183;-72
2021/04/04 08:42:42;;;;;;;4.33;1.80;;;;;;;7.32;66.70;99883.26;1745886;81;21159;-72
2021/04/04 08:45:17;;;;;;;6.42;2.20;;;;;;;7.30;66.14;99872.06;1746762;81;21690;-72
2021/04/04 08:47:47;;;;;;;4.15;1.57;;;;;;;7.28;66.29;99870.41;1746018;81;21163;-72
2021/04/04 08:50:20;;;;;;;3.27;1.50;;;;;;;7.39;66.62;99870.48;1725740;81;21639;-72
2021/04/04 08:52:51;;;;;;;3.67;1.55;;;;;;;7.54;66.34;99867.00;1744438;81;21009;-72
2021/04/04 08:55:30;;;;;;;6.03;1.82;;;;;;;7.65;66.36;99858.40;1757878;80;21274;-72
2021/04/04 08:58:01;;;;;;;4.85;1.60;;;;;;;7.64;65.73;99860.58;1756072;80;21181;-72
2021/04/04 09:00:30;;;;;;;4.00;1.50;;;;;;;7.50;64.57;99862.78;1738867;81;21174;-72
2021/04/04 09:03:04;;;;;;;2.08;1.30;;;;;;;7.35;64.80;99867.57;1745653;80;21307;-71
2021/04/04 09:05:34;;;;;;;2.85;1.30;;;;;;;7.24;65.12;99861.87;1736489;81;21647;-72
2021/04/04 09:08:04;;;;;;;1.85;1.22;;;;;;;7.26;64.82;99858.78;1739522;81;21229;-72
2021/04/04 09:10:41;;;;;;;5.60;1.50;;;;;;;7.12;63.65;99851.88;1741993;81;21556;-72
2021/04/04 09:13:16;;;;;;;4.72;1.40;;;;;;;6.94;62.46;99850.22;1744206;81;21220;-72
2021/04/04 09:15:54;;;;;;;4.12;1.40;;;;;;;6.72;63.90;99858.24;1739759;81;21464;-72
2021/04/04 09:18:22;;;;;;;3.42;0.98;;;;;;;6.62;61.87;99846.45;1743989;81;21072;-72
2021/04/04 09:20:50;;;;;;;9.98;1.60;;;;;;;6.48;61.15;99850.28;1736692;81;21650;-72
2021/04/04 09:23:21;;;;;;;4.28;1.65;;;;;;;6.66;63.40;99842.86;1740162;81;21042;-72
2021/04/04 09:25:59;;;;;;;3.70;1.50;;;;;;;6.83;62.51;99841.91;1745050;81;21238;-72
2021/04/04 09:28:29;;;;;;;2.90;1.30;;;;;;;6.92;63.52;99837.76;1745635;81;22163;-72
2021/04/04 09:31:02;;;;;;;4.55;1.35;;;;;;;7.00;62.30;99832.34;1745585;81;21222;-72
2021/04/04 09:36:13;;;;;;;4.90;1.40;;;;;;;7.04;61.95;99838.28;1870547;75;22066;-71
2021/04/04 09:38:43;;;;;;;4.92;1.55;;;;;;;6.83;61.89;99830.23;1828788;77;21148;-71
2021/04/04 09:41:11;;;;;;;3.33;1.85;;;;;;;6.88;62.79;99825.75;1795799;78;21199;-72
2021/04/04 09:43:40;;;;;;;21.45;2.52;;;;;;;7.11;63.16;99831.98;1796770;78;21079;-71
2021/04/04 09:46:08;;;;;;;3.98;1.17;;;;;;;7.51;63.58;99816.44;1765648;78;21145;-71
2021/04/04 09:48:41;;;;;;;6.12;1.92;;;;;;;7.57;62.99;99822.72;1775236;79;21605;-71
2021/04/04 09:51:15;;;;;;;6.12;2.05;;;;;;;7.66;62.96;99821.10;1753958;80;21089;-70
2021/04/04 09:53:50;;;;;;;4.22;2.08;;;;;;;7.85;63.22;99815.67;1781747;79;21315;-71
2021/04/04 09:56:22;;;;;;;4.62;2.22;;;;;;;8.02;62.87;99810.34;1774168;79;21120;-71
2021/04/04 09:58:49;;;;;;;4.20;2.00;;;;;;;8.10;62.74;99813.98;1771402;79;21100;-72
2021/04/04 10:01:24;;;;;;;5.30;1.70;;;;;;;7.98;62.32;99797.04;1770746;79;21172;-72
2021/04/04 10:04:01;;;;;;;2.08;1.25;;;;;;;7.85;62.06;99798.78;1744008;80;21068;-73
2021/04/04 10:06:30;;;;;;;2.77;1.40;;;;;;;7.58;61.67;99793.23;1772871;79;21392;-72
2021/04/04 10:09:02;;;;;;;4.25;1.77;;;;;;;7.52;62.12;99785.19;1772679;79;21076;-72
2021/04/04 10:11:33;;;;;;;5.53;2.25;;;;;;;7.54;61.99;99783.85;1775856;79;21043;-72
2021/04/04 10:14:14;;;;;;;3.90;2.17;;;;;;;7.79;62.66;99771.70;1771666;79;21092;-72
2021/04/04 10:16:42;;;;;;;8.80;1.70;;;;;;;7.95;60.14;99771.15;1802646;78;21238;-73
2021/04/04 10:22:01;;;;;;;5.17;1.17;;;;;;;8.04;61.73;99769.08;1840406;76;22737;-71
2021/04/04 10:24:35;;;;;;;3.37;1.27;;;;;;;8.17;61.83;99764.27;1808654;77;21201;-72
2021/04/04 10:27:27;;;;;;;4.67;1.60;;;;;;;8.37;61.69;99753.58;1797483;79;21190;-73
2021/04/04 10:30:18;;;;;;;3.30;1.07;;;;;;;8.52;61.36;99760.85;1798112;79;21635;-73
2021/04/04 10:32:48;;;;;;;2.02;1.10;;;;;;;8.70;61.07;99744.50;1800376;77;21098;-73
2021/04/04 10:35:37;;;;;;;3.27;1.25;;;;;;;8.99;61.79;99736.02;1742230;80;21188;-73
2021/04/04 10:38:12;;;;;;;4.17;1.95;;;;;;;9.26;61.28;99730.56;1747600;81;21079;-72
2021/04/04 10:40:46;;;;;;;2.92;1.05;;;;;;;9.51;61.32;99730.38;1747245;81;22161;-72
2021/04/04 10:43:22;;;;;;;3.92;0.98;;;;;;;9.67;60.65;99732.72;1747027;80;21757;-73
2021/04/04 10:46:10;;;;;;;3.65;1.02;;;;;;;9.82;58.63;99724.67;1752505;79;21049;-72
2021/04/04 10:48:49;;;;;;;22.42;2.40;;;;;;;9.91;60.50;99723.42;1750768;80;21199;-72
2021/04/04 10:51:20;;;;;;;1.90;1.07;;;;;;;10.13;60.17;99715.48;1753554;80;21159;-72
2021/04/04 10:53:48;;;;;;;1.67;1.22;;;;;;;10.15;59.63;99712.35;1710441;80;22176;-72
2021/04/04 10:56:17;;;;;;;2.87;1.05;;;;;;;9.98;59.71;99702.22;1746787;80;21703;-72
2021/04/04 10:58:46;;;;;;;1.80;0.98;;;;;;;9.82;59.29;99701.20;1746091;80;21122;-72
2021/04/04 11:01:14;;;;;;;15.13;1.40;;;;;;;9.64;59.61;99708.93;1775006;79;21200;-72
2021/04/04 11:03:43;;;;;;;3.72;0.93;;;;;;;9.60;59.40;99693.48;1709223;82;21326;-72
2021/04/04 11:06:12;;;;;;;2.55;1.00;;;;;;;9.45;59.23;99697.61;1734990;80;21315;-72
2021/04/04 11:08:43;;;;;;;2.83;0.95;;;;;;;9.40;59.24;99694.34;1739226;80;21675;-72
2021/04/04 11:11:14;;;;;;;5.67;1.00;;;;;;;9.38;59.03;99686.61;1734942;80;21049;-72
2021/04/04 11:13:53;;;;;;;3.12;1.02;;;;;;;9.23;58.95;99685.94;1731539;80;21220;-72
2021/04/04 11:16:25;;;;;;;1.65;1.17;;;;;;;9.18;59.04;99680.91;1738452;80;21128;-72
2021/04/04 11:18:56;;;;;;;5.72;1.92;;;;;;;9.28;59.17;99677.94;1733506;80;21566;-73
2021/04/04 11:21:38;;;;;;;4.22;0.90;;;;;;;9.28;58.42;99675.34;1719590;81;21190;-73
2021/04/04 11:24:03;;;;;;;3.70;0.90;;;;;;;8.92;57.71;99674.66;1723864;82;21233;-72
2021/04/04 11:26:36;;;;;;;;;;;;;;;8.78;58.35;99664.81;1735381;80;21171;-73
2021/04/04 11:29:14;;;;;;;3.55;1.40;;;;;;;8.74;58.22;99664.09;1736812;80;20352;-72
2021/04/04 11:31:43;;;;;;;3.95;1.00;;;;;;;8.83;58.63;99660.72;1730693;80;21194;-73
2021/04/04 11:34:38;;;;;;;1.98;0.72;;;;;;;9.01;58.32;99663.85;1749729;80;21130;-73
2021/04/04 11:37:08;;;;;;;1.67;0.75;;;;;;;9.09;58.21;99664.38;1738473;80;21192;-71
2021/04/04 11:39:35;;;;;;;6.65;1.50;;;;;;;9.11;58.35;99646.09;1738125;80;21252;-72
2021/04/04 11:42:07;;;;;;;4.12;1.57;;;;;;;9.11;57.99;99646.94;1751072;80;21789;-72
2021/04/04 11:44:40;;;;;;;2.20;0.72;;;;;;;9.19;58.08;99644.86;1726857;81;21247;-72
2021/04/04 11:47:22;;;;;;;2.83;1.20;;;;;;;9.26;58.14;99634.16;1740615;80;21236;-73
2021/04/04 11:49:54;;;;;;;1.45;0.80;;;;;;;9.34;57.69;99616.44;1748758;80;21176;-72
2021/04/04 11:52:28;;;;;;;3.10;1.07;;;;;;;9.24;57.16;99616.44;1752367;80;21248;-73
2021/04/04 11:54:56;;;;;;;5.42;0.80;;;;;;;9.22;57.50;99616.98;1758268;80;21120;-72
2021/04/04 11:57:30;;;;;;;4.58;0.80;;;;;;;9.24;57.25;99611.23;1750843;80;21445;-72
2021/04/04 12:00:14;;;;;;;2.08;0.90;;;;;;;9.19;57.11;99601.88;1750442;80;21192;-73
2021/04/04 12:02:59;;;;;;;1.82;0.80;;;;;;;9.23;57.05;99590.02;1753162;80;21159;-72
2021/04/04 12:05:30;;;;;;;1.57;0.70;;;;;;;9.18;56.67;99596.25;1749121;80;21026;-72
2021/04/04 12:07:58;;;;;;;2.75;1.12;;;;;;;9.19;56.85;99583.64;1743078;81;21233;-71
2021/04/04 12:10:32;;;;;;;4.70;2.00;;;;;;;9.25;56.65;99569.95;1750174;80;21557;-72
2021/04/04 12:13:02;;;;;;;1.87;0.93;;;;;;;9.22;56.15;99578.75;1746554;81;21602;-73
2021/04/04 12:15:30;;;;;;;1.82;1.00;;;;;;;9.09;56.05;99582.80;1727720;81;21193;-73
2021/04/04 12:18:01;;;;;;;1.60;1.00;;;;;;;9.07;56.05;99579.41;1747385;81;21805;-73
2021/04/04 12:20:34;;;;;;;2.90;1.40;;;;;;;9.06;56.17;99570.75;1746526;81;21246;-72
2021/04/04 12:23:11;;;;;;;1.85;0.70;;;;;;;9.17;56.52;99557.27;1715741;82;22096;-72
2021/04/04 12:25:39;;;;;;;3.05;1.00;;;;;;;9.33;56.27;99563.48;1742796;80;21701;-72